Time;durP1;ratioP1;P1;durP2;ratioP2;P2;SDS_P1;SDS_P2;PMS_P1;PMS_P2;Temp;Humidity;BMP_temperature;BMP_pressure;BME280_temperature;BME280_humidity;BME280_pressure;Samples;Min_cycle;Max_cycle;Signal;HPM_P1;HPM_P2
2022/03/19 00:01:01;;;;;;;10.40;3.53;;;4.20;99.90;;;;;;5042221;28;20448;-62
2022/03/19 00:03:27;;;;;;;10.25;3.67;;;4.10;99.90;;;;;;5050647;28;20036;-62
2022/03/19 00:05:53;;;;;;;10.65;2.88;;;4.10;99.90;;;;;;5047035;28;20048;-62
2022/03/19 00:08:19;;;;;;;15.80;3.95;;;4.00;99.90;;;;;;5049811;28;20037;-62
2022/03/19 00:10:45;;;;;;;12.90;3.88;;;3.90;99.90;;;;;;5050664;28;20178;-62
2022/03/19 00:13:12;;;;;;;13.60;4.20;;;4.00;99.90;;;;;;5050829;28;20037;-62
2022/03/19 00:15:38;;;;;;;15.35;3.80;;;4.10;99.90;;;;;;5040191;28;20038;-62
2022/03/19 00:18:04;;;;;;;13.00;3.83;;;4.30;99.90;;;;;;5050198;28;20139;-62
2022/03/19 00:20:31;;;;;;;15.60;4.18;;;4.40;99.90;;;;;;5050670;28;20115;-62
2022/03/19 00:22:56;;;;;;;14.73;3.95;;;4.40;99.90;;;;;;5045864;28;20040;-61
2022/03/19 00:25:22;;;;;;;10.57;3.25;;;4.40;99.90;;;;;;5050165;28;20033;-63
2022/03/19 00:27:48;;;;;;;16.83;5.07;;;4.40;99.90;;;;;;5049872;28;20515;-62
2022/03/19 00:30:14;;;;;;;12.45;4.07;;;4.50;99.90;;;;;;5050665;28;20067;-62
2022/03/19 00:32:40;;;;;;;15.18;4.10;;;4.40;99.90;;;;;;5039049;28;20468;-63
2022/03/19 00:35:07;;;;;;;22.27;3.92;;;4.40;99.90;;;;;;5049986;28;20029;-62
2022/03/19 00:37:51;;;;;;;19.05;4.03;;;4.40;99.90;;;;;;5049938;28;20046;-61
2022/03/19 00:40:17;;;;;;;11.32;3.42;;;4.20;99.90;;;;;;5044317;28;20575;-61
2022/03/19 00:42:43;;;;;;;12.63;3.83;;;4.10;99.90;;;;;;5031715;28;20121;-61
2022/03/19 00:45:10;;;;;;;13.85;3.47;;;4.00;99.90;;;;;;5050289;28;20071;-62
2022/03/19 00:47:35;;;;;;;15.27;3.67;;;3.90;99.90;;;;;;5047306;28;20463;-61
2022/03/19 00:50:03;;;;;;;13.27;4.20;;;3.80;99.90;;;;;;5038144;28;20121;-62
2022/03/19 00:52:28;;;;;;;10.15;3.63;;;3.60;99.90;;;;;;5045715;28;20043;-62
2022/03/19 00:54:54;;;;;;;18.90;4.32;;;3.50;99.90;;;;;;5050367;28;20041;-63
2022/03/19 00:57:19;;;;;;;16.33;4.22;;;3.50;99.90;;;;;;5029912;28;20144;-62
2022/03/19 00:59:45;;;;;;;13.30;4.50;;;3.50;99.90;;;;;;5042622;28;20418;-62
2022/03/19 01:02:10;;;;;;;13.90;4.00;;;3.50;99.90;;;;;;5049977;28;20032;-62
2022/03/19 01:04:36;;;;;;;13.88;4.00;;;3.50;99.90;;;;;;5043892;28;20037;-62
2022/03/19 01:07:01;;;;;;;14.85;4.25;;;3.50;99.90;;;;;;5045054;28;20041;-62
2022/03/19 01:09:27;;;;;;;15.80;4.88;;;3.50;99.90;;;;;;5049914;28;20037;-62
2022/03/19 01:11:53;;;;;;;9.75;3.83;;;3.50;99.90;;;;;;5050341;28;20076;-62
2022/03/19 01:14:19;;;;;;;21.15;4.47;;;3.40;99.90;;;;;;5041145;28;20025;-62
2022/03/19 01:16:44;;;;;;;16.10;4.32;;;3.30;99.90;;;;;;5047219;28;20048;-61
2022/03/19 01:19:10;;;;;;;18.10;4.40;;;3.40;99.90;;;;;;5049715;28;20041;-62
2022/03/19 01:21:36;;;;;;;16.05;3.90;;;3.40;99.90;;;;;;5047677;28;20041;-61
2022/03/19 01:24:03;;;;;;;13.50;4.70;;;3.30;99.90;;;;;;5038082;28;20052;-62
2022/03/19 01:26:28;;;;;;;13.57;4.25;;;3.30;99.90;;;;;;5050034;28;20033;-62
2022/03/19 01:28:54;;;;;;;14.75;3.70;;;3.30;99.90;;;;;;5049978;28;20099;-62
2022/03/19 01:31:23;;;;;;;10.00;4.00;;;3.20;99.90;;;;;;5045680;28;20031;-62
2022/03/19 01:33:49;;;;;;;12.50;4.40;;;3.20;99.90;;;;;;5035216;28;20045;-61
2022/03/19 01:36:15;;;;;;;11.63;4.50;;;3.10;99.90;;;;;;5049922;28;20120;-62
2022/03/19 01:38:41;;;;;;;14.98;4.55;;;3.00;99.90;;;;;;5039837;28;20048;-62
2022/03/19 01:41:06;;;;;;;15.52;4.65;;;3.00;99.90;;;;;;5043893;28;20488;-62
2022/03/19 01:43:32;;;;;;;12.60;4.72;;;3.20;99.90;;;;;;5053343;28;20162;-62
2022/03/19 01:45:58;;;;;;;13.20;3.95;;;3.20;99.90;;;;;;5036007;28;20402;-62
2022/03/19 01:48:25;;;;;;;13.63;4.13;;;3.20;99.90;;;;;;5044298;28;20036;-62
2022/03/19 01:50:51;;;;;;;14.90;4.75;;;3.30;99.90;;;;;;5046314;28;20044;-62
2022/03/19 01:53:16;;;;;;;14.57;4.40;;;3.40;99.90;;;;;;5052981;28;20040;-63
2022/03/19 01:55:42;;;;;;;17.02;4.88;;;3.40;99.90;;;;;;5048396;28;20086;-62
2022/03/19 01:58:08;;;;;;;15.88;4.88;;;3.40;99.90;;;;;;5052962;28;20029;-62
2022/03/19 02:00:34;;;;;;;16.67;4.72;;;3.50;99.90;;;;;;5053247;28;20509;-63
2022/03/19 02:03:00;;;;;;;17.00;4.13;;;3.50;99.90;;;;;;5052934;28;20037;-62
2022/03/19 02:05:26;;;;;;;13.38;4.50;;;3.50;99.90;;;;;;5030027;28;20048;-61
2022/03/19 02:07:52;;;;;;;16.27;4.80;;;3.50;99.90;;;;;;5052425;28;20029;-62
2022/03/19 02:10:22;;;;;;;13.23;4.05;;;3.50;99.90;;;;;;5053007;28;20043;-62
2022/03/19 02:12:50;;;;;;;14.77;4.55;;;3.50;99.90;;;;;;5029264;28;20041;-62
2022/03/19 02:15:16;;;;;;;12.93;4.80;;;3.50;99.90;;;;;;5047199;28;20037;-62
2022/03/19 02:17:43;;;;;;;10.32;4.10;;;3.40;99.90;;;;;;5053089;28;20033;-62
2022/03/19 02:20:09;;;;;;;10.10;4.15;;;3.30;99.90;;;;;;5049875;28;20115;-62
2022/03/19 02:22:35;;;;;;;13.55;4.78;;;3.10;99.90;;;;;;5039547;28;20482;-62
2022/03/19 02:27:46;;;;;;;14.32;4.53;;;3.10;99.90;;;;;;5048820;28;20040;-61
2022/03/19 02:30:14;;;;;;;17.83;5.93;;;3.10;99.90;;;;;;5047258;28;20048;-62
2022/03/19 02:32:45;;;;;;;15.85;5.40;;;3.10;99.90;;;;;;5052185;28;20037;-62
2022/03/19 02:35:11;;;;;;;17.83;5.15;;;3.10;99.90;;;;;;5052801;28;20037;-62
2022/03/19 02:37:38;;;;;;;12.60;5.05;;;3.10;99.90;;;;;;5047691;28;20036;-62
2022/03/19 02:40:04;;;;;;;12.27;4.88;;;3.10;99.90;;;;;;5040435;28;20037;-62
2022/03/19 02:42:30;;;;;;;15.27;5.03;;;3.10;99.90;;;;;;5051945;28;20069;-62
2022/03/19 02:44:56;;;;;;;14.85;5.50;;;3.00;99.90;;;;;;5044980;28;20146;-62
2022/03/19 02:47:21;;;;;;;16.52;5.10;;;3.00;99.90;;;;;;5026136;28;20041;-62
2022/03/19 02:49:47;;;;;;;14.40;4.65;;;3.00;99.90;;;;;;5052246;28;20041;-62
2022/03/19 02:52:12;;;;;;;12.48;4.80;;;3.00;99.90;;;;;;5034294;28;20120;-61
2022/03/19 02:54:38;;;;;;;17.70;5.03;;;3.00;99.90;;;;;;5041260;28;20037;-63
2022/03/19 02:57:03;;;;;;;16.98;5.28;;;3.00;99.90;;;;;;5044767;28;20040;-62
2022/03/19 02:59:34;;;;;;;18.17;4.80;;;2.90;99.90;;;;;;5052080;28;20483;-62
2022/03/19 03:02:03;;;;;;;10.50;4.50;;;2.90;99.90;;;;;;5045303;28;20037;-62
2022/03/19 03:04:29;;;;;;;14.43;5.03;;;2.70;99.90;;;;;;5046338;28;20068;-62
2022/03/19 03:06:57;;;;;;;15.25;4.57;;;2.70;99.90;;;;;;5052165;28;20045;-62
2022/03/19 03:09:24;;;;;;;13.55;5.35;;;2.60;99.90;;;;;;5047993;28;20084;-62
2022/03/19 03:11:50;;;;;;;13.57;4.93;;;2.60;99.90;;;;;;5038415;28;20041;-62
2022/03/19 03:14:20;;;;;;;17.05;5.40;;;2.40;99.90;;;;;;5051316;28;20395;-62
2022/03/19 03:16:47;;;;;;;19.95;5.85;;;2.30;99.90;;;;;;5051940;28;20040;-62
2022/03/19 03:19:14;;;;;;;15.15;4.90;;;2.30;99.90;;;;;;5046228;28;20040;-62
2022/03/19 03:21:40;;;;;;;15.82;5.03;;;2.20;99.90;;;;;;5043177;28;20037;-61
2022/03/19 03:24:07;;;;;;;16.33;5.43;;;2.10;99.90;;;;;;5051234;28;20125;-62
2022/03/19 03:26:33;;;;;;;12.43;5.68;;;2.00;99.90;;;;;;5051747;28;20402;-61
2022/03/19 03:28:58;;;;;;;11.43;5.25;;;2.00;99.90;;;;;;5041063;28;20033;-62
2022/03/19 03:31:25;;;;;;;12.13;5.68;;;1.90;99.90;;;;;;5051109;28;20395;-62
2022/03/19 03:33:52;;;;;;;13.65;5.57;;;1.90;99.90;;;;;;5051486;28;20040;-62
2022/03/19 03:36:18;;;;;;;18.52;5.93;;;1.90;99.90;;;;;;5025560;28;20505;-61
2022/03/19 03:38:43;;;;;;;15.18;5.38;;;1.90;99.90;;;;;;5050645;28;20120;-61
2022/03/19 03:41:09;;;;;;;14.77;5.40;;;1.90;99.90;;;;;;5051883;28;20071;-62
2022/03/19 03:43:35;;;;;;;15.15;5.40;;;1.80;99.90;;;;;;5046922;28;20581;-62
2022/03/19 03:46:02;;;;;;;16.67;6.60;;;1.90;99.90;;;;;;5049471;28;20029;-63
2022/03/19 03:48:28;;;;;;;14.82;5.97;;;1.90;99.90;;;;;;5051096;28;20040;-62
2022/03/19 03:50:55;;;;;;;13.95;6.40;;;1.90;99.90;;;;;;5049200;28;20047;-62
2022/03/19 03:53:24;;;;;;;18.25;6.70;;;1.90;99.90;;;;;;5035128;28;20048;-62
2022/03/19 03:55:50;;;;;;;17.88;6.65;;;1.90;99.90;;;;;;5049338;28;20498;-62
2022/03/19 03:58:15;;;;;;;16.13;6.40;;;1.80;99.90;;;;;;5051383;28;20115;-62
2022/03/19 04:00:41;;;;;;;17.75;6.50;;;1.80;99.90;;;;;;5020788;28;20539;-62
2022/03/19 04:03:07;;;;;;;16.77;6.65;;;1.80;99.90;;;;;;5048773;28;20068;-62
2022/03/19 04:05:36;;;;;;;14.55;6.53;;;1.80;99.90;;;;;;5050907;28;20068;-61
2022/03/19 04:08:03;;;;;;;20.42;7.00;;;1.80;99.90;;;;;;5045856;28;20039;-61
2022/03/19 04:10:30;;;;;;;25.08;7.47;;;2.00;99.90;;;;;;5050211;28;20069;-62
2022/03/19 04:12:55;;;;;;;20.77;8.27;;;2.10;99.90;;;;;;5050333;28;20036;-62
2022/03/19 04:15:21;;;;;;;23.13;8.00;;;2.40;99.90;;;;;;5051154;28;20040;-62
2022/03/19 04:17:47;;;;;;;17.80;7.10;;;2.60;99.90;;;;;;5045011;28;20438;-62
2022/03/19 04:20:13;;;;;;;17.77;7.80;;;2.70;99.90;;;;;;5041158;28;20048;-62
2022/03/19 04:22:46;;;;;;;23.38;6.90;;;2.80;99.90;;;;;;5050095;28;20037;-61
2022/03/19 04:25:30;;;;;;;19.73;7.85;;;2.90;99.90;;;;;;5048106;28;20123;-61
2022/03/19 04:27:56;;;;;;;19.10;7.32;;;3.00;99.90;;;;;;5050060;28;20390;-62
2022/03/19 04:30:25;;;;;;;16.15;7.05;;;3.10;99.90;;;;;;5050563;28;20053;-62
2022/03/19 04:32:56;;;;;;;15.43;7.40;;;3.10;99.90;;;;;;5050228;28;20079;-62
2022/03/19 04:38:17;;;;;;;15.40;6.53;;;3.10;99.90;;;;;;5046536;28;20041;-62
2022/03/19 04:40:44;;;;;;;16.98;6.60;;;3.10;99.90;;;;;;5050495;28;20095;-62
2022/03/19 04:43:11;;;;;;;19.95;8.00;;;3.10;99.90;;;;;;5016167;28;20037;-62
2022/03/19 04:45:37;;;;;;;16.70;6.93;;;3.10;99.90;;;;;;5028638;28;20052;-62
2022/03/19 04:48:03;;;;;;;20.63;7.38;;;3.00;99.90;;;;;;5045567;28;20045;-62
2022/03/19 04:50:29;;;;;;;17.17;6.97;;;3.00;99.90;;;;;;5046675;28;20041;-62
2022/03/19 04:52:55;;;;;;;18.98;6.65;;;2.90;99.90;;;;;;5049602;28;20033;-62
2022/03/19 04:55:21;;;;;;;21.80;7.47;;;2.90;99.90;;;;;;5050537;28;20115;-62
2022/03/19 04:57:48;;;;;;;18.83;7.47;;;2.90;99.90;;;;;;5042305;28;20040;-62
2022/03/19 05:00:16;;;;;;;16.02;7.38;;;3.00;99.90;;;;;;5045044;28;20052;-62
2022/03/19 05:02:43;;;;;;;21.15;6.82;;;3.00;99.90;;;;;;5049661;28;20041;-61
2022/03/19 05:05:09;;;;;;;20.05;7.03;;;3.10;99.90;;;;;;5050345;28;20491;-62
2022/03/19 05:07:35;;;;;;;24.95;7.47;;;3.00;99.90;;;;;;5047514;28;20075;-61
2022/03/19 05:12:49;;;;;;;16.98;7.25;;;3.00;99.90;;;;;;5047875;28;20120;-63
2022/03/19 05:15:16;;;;;;;15.55;7.05;;;3.00;99.90;;;;;;5043072;28;20439;-62
2022/03/19 05:17:42;;;;;;;19.23;6.75;;;3.00;99.90;;;;;;5033214;28;20033;-62
2022/03/19 05:20:09;;;;;;;15.70;6.03;;;3.00;99.90;;;;;;5053686;28;20146;-62
2022/03/19 05:22:34;;;;;;;14.90;6.43;;;3.10;99.90;;;;;;5053842;28;20048;-62
2022/03/19 05:25:01;;;;;;;16.08;6.10;;;3.10;99.90;;;;;;5047049;28;20083;-61
2022/03/19 05:27:26;;;;;;;16.95;6.60;;;3.10;99.90;;;;;;5053344;28;20076;-62
2022/03/19 05:29:53;;;;;;;19.83;5.90;;;3.10;99.90;;;;;;5053774;28;20068;-62
2022/03/19 05:32:19;;;;;;;14.05;5.93;;;3.10;99.90;;;;;;5047917;28;20051;-62
2022/03/19 05:34:45;;;;;;;16.70;6.18;;;3.20;99.90;;;;;;5052940;28;20086;-62
2022/03/19 05:37:11;;;;;;;20.05;5.70;;;3.20;99.90;;;;;;5053601;28;20116;-62
2022/03/19 05:39:37;;;;;;;16.65;5.88;;;3.20;99.90;;;;;;5047775;22;20073;-61
2022/03/19 05:42:04;;;;;;;21.75;6.47;;;3.20;99.90;;;;;;5017941;28;20068;-62
2022/03/19 05:44:29;;;;;;;15.45;5.45;;;3.20;99.90;;;;;;5030431;28;20506;-62
2022/03/19 05:46:58;;;;;;;16.30;6.28;;;3.30;99.90;;;;;;5021617;28;20065;-62
2022/03/19 05:49:24;;;;;;;15.02;5.30;;;3.30;99.90;;;;;;5024202;28;20041;-62
2022/03/19 05:51:50;;;;;;;14.43;5.55;;;3.40;99.90;;;;;;5021453;28;20281;-62
2022/03/19 05:54:15;;;;;;;12.77;4.53;;;3.40;99.90;;;;;;5029484;28;20513;-61
2022/03/19 05:56:41;;;;;;;20.20;5.60;;;3.50;99.90;;;;;;5039213;28;20517;-61
2022/03/19 05:59:06;;;;;;;14.48;5.13;;;3.50;99.90;;;;;;5039040;28;20713;-61
2022/03/19 06:01:32;;;;;;;19.15;5.57;;;3.60;99.90;;;;;;5023541;28;20404;-61
2022/03/19 06:03:59;;;;;;;18.08;5.70;;;3.60;99.90;;;;;;5027312;28;20037;-61
2022/03/19 06:06:28;;;;;;;14.93;5.60;;;3.60;99.90;;;;;;5024425;28;20037;-61
2022/03/19 06:08:54;;;;;;;13.35;5.70;;;3.60;99.90;;;;;;5022178;28;20041;-62
2022/03/19 06:11:20;;;;;;;15.88;5.47;;;3.60;99.90;;;;;;5028544;28;20087;-62
2022/03/19 06:13:45;;;;;;;17.90;5.35;;;3.60;99.90;;;;;;5029810;28;20547;-62
2022/03/19 06:16:11;;;;;;;13.95;5.32;;;3.60;99.90;;;;;;5030389;28;20041;-61
2022/03/19 06:18:37;;;;;;;14.02;5.13;;;3.70;99.90;;;;;;5022661;28;20112;-61
2022/03/19 06:21:03;;;;;;;16.92;5.45;;;3.80;99.90;;;;;;5019399;28;20489;-62
2022/03/19 06:23:29;;;;;;;18.10;6.07;;;3.90;99.90;;;;;;5014250;28;20038;-61
2022/03/19 06:25:54;;;;;;;15.32;5.10;;;4.00;99.90;;;;;;5014776;28;20103;-61
2022/03/19 06:28:20;;;;;;;18.15;6.43;;;4.00;99.90;;;;;;5023393;28;20075;-62
2022/03/19 06:30:46;;;;;;;22.90;5.45;;;4.10;99.90;;;;;;5029590;28;20064;-62
2022/03/19 06:33:12;;;;;;;20.58;5.63;;;4.20;99.90;;;;;;5013978;28;20084;-62
2022/03/19 06:38:28;;;;;;;14.65;5.15;;;4.40;99.90;;;;;;5021152;28;20050;-62
2022/03/19 06:40:54;;;;;;;21.20;5.15;;;4.50;99.90;;;;;;5027659;28;20057;-62
2022/03/19 06:43:21;;;;;;;23.85;6.05;;;4.60;99.90;;;;;;5028168;28;20040;-65
2022/03/19 06:45:46;;;;;;;19.25;5.70;;;4.60;99.90;;;;;;5020303;28;20042;-62
2022/03/19 06:48:12;;;;;;;16.88;5.40;;;4.70;99.90;;;;;;5024344;28;20389;-62
2022/03/19 06:50:37;;;;;;;13.63;5.40;;;4.70;99.90;;;;;;5027935;28;20037;-62
2022/03/19 06:53:04;;;;;;;13.02;5.13;;;4.80;99.90;;;;;;5029246;28;20776;-62
2022/03/19 06:55:30;;;;;;;13.80;5.90;;;4.80;99.90;;;;;;5024365;28;20756;-62
2022/03/19 06:57:59;;;;;;;17.15;5.75;;;4.80;99.90;;;;;;5033650;28;20486;-62
2022/03/19 07:00:24;;;;;;;14.00;6.30;;;4.90;99.90;;;;;;5029177;28;20048;-62
2022/03/19 07:02:52;;;;;;;18.70;6.90;;;5.00;99.90;;;;;;5020233;28;20045;-61
2022/03/19 07:05:28;;;;;;;22.65;5.53;;;5.00;99.90;;;;;;5027940;28;20663;-61
2022/03/19 07:07:56;;;;;;;21.65;6.43;;;5.10;99.90;;;;;;5029555;28;20577;-62
2022/03/19 07:10:22;;;;;;;19.60;6.82;;;5.10;99.90;;;;;;5029080;28;20679;-62
2022/03/19 07:12:50;;;;;;;17.00;6.63;;;5.20;99.90;;;;;;5020382;28;20045;-62
2022/03/19 07:15:19;;;;;;;18.55;6.88;;;5.30;99.90;;;;;;5025568;28;20510;-62
2022/03/19 07:17:46;;;;;;;18.85;6.38;;;5.30;99.90;;;;;;5032011;28;20049;-62
2022/03/19 07:20:14;;;;;;;17.48;6.68;;;5.40;99.90;;;;;;5027410;28;20045;-62
2022/03/19 07:23:00;;;;;;;21.92;7.75;;;5.40;99.90;;;;;;5021663;28;20231;-62
2022/03/19 07:25:31;;;;;;;21.52;6.10;;;5.50;99.90;;;;;;5030774;28;20239;-62
2022/03/19 07:27:59;;;;;;;20.17;6.13;;;5.60;99.90;;;;;;5027284;28;20036;-62
2022/03/19 07:30:25;;;;;;;17.88;6.18;;;5.60;99.90;;;;;;5022427;28;20041;-62
2022/03/19 07:32:51;;;;;;;22.85;8.02;;;5.70;99.90;;;;;;5030195;28;20399;-62
2022/03/19 07:35:17;;;;;;;19.88;6.53;;;5.70;99.90;;;;;;5031213;28;20044;-62
2022/03/19 07:37:44;;;;;;;19.42;6.20;;;5.80;99.90;;;;;;5024587;28;20034;-62
2022/03/19 07:40:12;;;;;;;18.00;6.65;;;5.90;99.90;;;;;;5018589;28;20068;-62
2022/03/19 07:42:38;;;;;;;18.10;6.60;;;5.90;99.90;;;;;;5016056;28;20128;-62
2022/03/19 07:45:05;;;;;;;21.80;7.95;;;6.00;99.90;;;;;;5028318;28;20144;-62
2022/03/19 07:47:32;;;;;;;14.38;6.75;;;6.10;99.90;;;;;;5028075;28;20037;-62
2022/03/19 07:49:58;;;;;;;19.55;6.60;;;6.10;99.90;;;;;;5031199;28;20057;-62
2022/03/19 07:52:25;;;;;;;15.68;5.80;;;6.20;99.90;;;;;;5018831;28;20068;-62
2022/03/19 07:54:54;;;;;;;15.95;5.68;;;6.30;99.90;;;;;;5022825;28;20400;-62
2022/03/19 07:57:22;;;;;;;17.77;6.90;;;6.30;99.90;;;;;;5037497;28;20481;-62
2022/03/19 07:59:47;;;;;;;17.95;5.85;;;6.40;99.90;;;;;;5024294;28;20073;-62
2022/03/19 08:02:13;;;;;;;18.95;6.18;;;6.50;99.90;;;;;;5022239;28;20065;-62
2022/03/19 08:04:39;;;;;;;15.48;6.15;;;6.60;99.90;;;;;;5028877;28;20088;-62
2022/03/19 08:07:06;;;;;;;20.95;5.88;;;6.60;99.90;;;;;;5031125;28;20060;-62
2022/03/19 08:09:31;;;;;;;15.38;6.28;;;6.60;99.90;;;;;;5025755;28;20052;-62
2022/03/19 08:11:58;;;;;;;12.68;5.90;;;6.70;99.90;;;;;;5025182;28;20124;-62
2022/03/19 08:14:24;;;;;;;16.98;6.15;;;6.80;99.90;;;;;;5022120;28;20038;-62
2022/03/19 08:16:50;;;;;;;18.55;5.70;;;6.90;99.90;;;;;;5021745;28;20038;-62
2022/03/19 08:19:15;;;;;;;14.93;5.68;;;6.90;99.90;;;;;;5020374;28;20037;-62
2022/03/19 08:21:45;;;;;;;13.48;5.45;;;6.90;99.90;;;;;;5030463;28;20033;-62
2022/03/19 08:24:14;;;;;;;16.65;5.60;;;7.00;99.90;;;;;;5030463;28;20053;-62
2022/03/19 08:26:39;;;;;;;16.00;6.00;;;7.10;99.90;;;;;;5027268;28;20029;-61
2022/03/19 08:29:06;;;;;;;12.63;5.75;;;7.10;99.90;;;;;;5021262;28;20037;-61
2022/03/19 08:31:32;;;;;;;14.10;5.32;;;7.20;99.90;;;;;;5030652;28;20061;-62
2022/03/19 08:33:58;;;;;;;13.90;5.13;;;7.30;99.90;;;;;;5030856;28;20079;-62
2022/03/19 08:36:24;;;;;;;13.40;5.28;;;7.40;99.90;;;;;;5016476;28;20037;-61
2022/03/19 08:41:34;;;;;;;22.70;5.80;;;7.50;99.90;;;;;;5029073;28;20058;-62
2022/03/19 08:44:00;;;;;;;18.08;5.55;;;7.70;99.90;;;;;;5016240;28;20045;-62
2022/03/19 08:46:26;;;;;;;13.77;4.63;;;7.70;99.90;;;;;;5028810;28;20053;-62
2022/03/19 08:48:51;;;;;;;13.00;5.03;;;7.80;99.90;;;;;;5029778;28;20628;-62
2022/03/19 08:54:03;;;;;;;12.02;4.45;;;8.00;99.90;;;;;;5029102;28;20034;-61
2022/03/19 08:56:30;;;;;;;17.70;4.43;;;8.00;99.90;;;;;;5028930;28;20033;-62
2022/03/19 08:58:56;;;;;;;19.08;4.38;;;8.10;99.90;;;;;;5030554;28;20503;-62
2022/03/19 09:01:22;;;;;;;17.15;4.47;;;8.20;99.90;;;;;;5024379;28;20515;-62
2022/03/19 09:03:47;;;;;;;18.33;5.38;;;8.20;99.90;;;;;;5029651;28;20082;-62
2022/03/19 09:06:14;;;;;;;12.48;4.75;;;8.30;99.90;;;;;;5030733;28;20535;-62
2022/03/19 09:08:44;;;;;;;16.65;4.35;;;8.40;99.90;;;;;;5023361;28;20405;-61
2022/03/19 09:11:10;;;;;;;16.02;4.40;;;8.40;99.90;;;;;;5018319;28;20566;-61
2022/03/19 09:13:36;;;;;;;13.60;3.67;;;8.40;99.90;;;;;;5013408;28;20100;-61
2022/03/19 09:16:03;;;;;;;15.10;4.20;;;8.60;99.90;;;;;;5025707;28;20037;-62
2022/03/19 09:18:29;;;;;;;14.85;4.22;;;8.70;99.90;;;;;;5022337;28;20444;-61
2022/03/19 09:20:55;;;;;;;13.82;3.92;;;8.60;99.90;;;;;;5020954;28;20128;-62
2022/03/19 09:23:21;;;;;;;15.15;3.90;;;8.70;99.90;;;;;;5029830;28;20109;-62
2022/03/19 09:25:46;;;;;;;12.55;3.72;;;8.70;99.90;;;;;;5022092;28;20122;-62
2022/03/19 09:28:12;;;;;;;13.40;3.63;;;8.80;99.90;;;;;;5022089;28;20609;-62
2022/03/19 09:30:38;;;;;;;13.70;3.55;;;8.80;99.90;;;;;;5017588;28;20084;-62
2022/03/19 09:33:03;;;;;;;7.70;3.10;;;9.00;99.90;;;;;;5027294;28;20033;-62
2022/03/19 09:35:29;;;;;;;11.65;3.17;;;9.00;99.90;;;;;;5028624;28;20025;-62
2022/03/19 09:37:55;;;;;;;10.05;3.42;;;9.10;99.90;;;;;;5030379;28;20041;-62
2022/03/19 09:40:21;;;;;;;14.10;3.75;;;9.10;99.90;;;;;;5026526;28;20133;-62
2022/03/19 09:42:48;;;;;;;11.38;4.25;;;9.20;99.90;;;;;;5009382;28;20042;-62
2022/03/19 09:45:14;;;;;;;9.75;3.45;;;9.20;99.90;;;;;;5021450;28;20041;-61
2022/03/19 09:47:39;;;;;;;11.27;3.53;;;9.30;99.90;;;;;;5008970;28;20041;-61
2022/03/19 09:50:06;;;;;;;9.90;3.50;;;9.40;99.90;;;;;;5023105;28;20038;-62
2022/03/19 09:52:35;;;;;;;14.60;4.05;;;9.50;99.90;;;;;;5026451;28;20118;-62
2022/03/19 09:55:02;;;;;;;14.82;4.13;;;9.60;99.90;;;;;;5026598;28;20033;-62
2022/03/19 09:57:28;;;;;;;13.25;3.88;;;9.60;99.90;;;;;;5023537;28;20041;-62
2022/03/19 09:59:53;;;;;;;9.00;3.75;;;9.70;99.90;;;;;;5011756;28;20038;-62
2022/03/19 10:02:19;;;;;;;11.43;3.75;;;9.70;99.90;;;;;;5027018;28;20144;-62
2022/03/19 10:04:44;;;;;;;11.90;3.95;;;9.70;99.90;;;;;;5028628;28;20038;-62
2022/03/19 10:09:56;;;;;;;12.50;3.40;;;9.80;99.90;;;;;;5016529;28;20265;-62
2022/03/19 10:12:30;;;;;;;11.65;4.00;;;9.80;98.30;;;;;;5027363;28;20530;-62
2022/03/19 10:14:57;;;;;;;13.02;4.00;;;9.80;99.90;;;;;;5017858;28;20068;-62
2022/03/19 10:17:37;;;;;;;9.90;3.22;;;9.90;99.80;;;;;;5024539;28;20168;-62
2022/03/19 10:20:07;;;;;;;10.93;3.30;;;9.90;99.90;;;;;;5027608;28;20049;-62
2022/03/19 10:22:34;;;;;;;10.20;3.17;;;9.90;99.90;;;;;;5029465;28;20037;-62
2022/03/19 10:25:08;;;;;;;8.93;3.30;;;9.90;99.90;;;;;;5032727;28;20044;-62
2022/03/19 10:27:39;;;;;;;14.13;3.38;;;10.00;99.90;;;;;;5028097;28;20112;-62
2022/03/19 10:30:18;;;;;;;10.88;3.40;;;10.00;99.90;;;;;;5024833;28;20042;-63
2022/03/19 10:32:48;;;;;;;9.98;3.15;;;10.10;98.70;;;;;;5015877;28;20088;-63
2022/03/19 10:35:25;;;;;;;11.38;3.13;;;10.20;99.00;;;;;;5015060;28;20049;-62
2022/03/19 10:37:51;;;;;;;9.20;2.85;;;10.30;97.00;;;;;;5027987;28;20099;-62
2022/03/19 10:40:18;;;;;;;9.48;3.42;;;10.30;95.10;;;;;;5031694;28;20037;-62
2022/03/19 10:42:43;;;;;;;10.73;2.45;;;10.40;99.20;;;;;;5026420;28;20038;-62
2022/03/19 10:45:12;;;;;;;7.97;2.58;;;10.60;99.90;;;;;;5026494;28;20407;-62
2022/03/19 10:47:46;;;;;;;8.18;2.60;;;10.60;95.10;;;;;;5020187;28;20117;-61
2022/03/19 10:50:19;;;;;;;12.32;2.63;;;10.60;96.00;;;;;;5019140;28;20480;-62
2022/03/19 10:52:50;;;;;;;6.45;2.65;;;10.70;96.90;;;;;;5032116;28;20116;-62
2022/03/19 10:55:16;;;;;;;6.57;2.45;;;10.80;97.70;;;;;;5032406;28;20460;-62
2022/03/19 10:57:42;;;;;;;8.13;2.20;;;10.80;94.20;;;;;;5040951;28;20033;-62
2022/03/19 11:00:09;;;;;;;10.23;2.70;;;10.90;93.90;;;;;;5012800;28;20096;-62
2022/03/19 11:02:38;;;;;;;6.50;2.58;;;11.10;96.20;;;;;;5027222;28;20037;-62
2022/03/19 11:05:05;;;;;;;5.75;2.67;;;11.10;93.70;;;;;;5028195;28;20073;-62
2022/03/19 11:07:34;;;;;;;12.25;3.20;;;11.20;96.00;;;;;;5026982;28;20040;-62
2022/03/19 11:10:04;;;;;;;8.60;3.10;;;11.30;94.60;;;;;;5031928;28;20045;-62
2022/03/19 11:12:33;;;;;;;8.90;2.97;;;11.30;96.50;;;;;;5031689;28;20037;-62
2022/03/19 11:15:03;;;;;;;12.02;3.88;;;11.30;91.40;;;;;;5027262;28;20041;-62
2022/03/19 11:17:33;;;;;;;10.57;3.25;;;11.40;94.90;;;;;;5027914;28;20025;-62
2022/03/19 11:20:09;;;;;;;10.90;3.13;;;11.40;93.20;;;;;;5031800;28;20084;-62
2022/03/19 11:22:49;;;;;;;7.20;2.78;;;11.50;92.50;;;;;;5022184;28;20120;-63
2022/03/19 11:25:27;;;;;;;9.18;2.90;;;11.50;93.30;;;;;;5024107;28;20046;-63
2022/03/19 11:28:01;;;;;;;9.63;2.63;;;11.70;90.80;;;;;;5031349;28;20495;-63
2022/03/19 11:30:28;;;;;;;6.90;2.75;;;11.80;90.60;;;;;;5024034;28;20038;-63
2022/03/19 11:33:17;;;;;;;18.90;2.55;;;11.80;89.20;;;;;;5017080;28;20575;-63
2022/03/19 11:35:45;;;;;;;5.47;2.20;;;11.90;93.20;;;;;;5031337;28;20037;-63
2022/03/19 11:38:16;;;;;;;7.30;2.13;;;12.00;77.90;;;;;;5015019;28;20082;-63
2022/03/19 11:40:54;;;;;;;4.63;1.52;;;12.10;84.20;;;;;;5012102;28;20042;-65
2022/03/19 11:43:35;;;;;;;8.90;2.50;;;12.10;76.40;;;;;;5030846;28;20534;-64
2022/03/19 11:46:12;;;;;;;5.53;2.10;;;12.10;89.50;;;;;;5030615;28;20057;-64
2022/03/19 11:48:46;;;;;;;4.38;1.92;;;12.20;79.40;;;;;;5020674;28;20388;-64
2022/03/19 11:51:25;;;;;;;5.28;2.00;;;12.20;81.30;;;;;;5031350;28;20056;-64
2022/03/19 11:54:01;;;;;;;8.95;2.20;;;12.40;84.90;;;;;;5031438;28;20100;-64
2022/03/19 11:56:38;;;;;;;5.05;2.10;;;12.60;90.20;;;;;;5023865;28;20040;-64
2022/03/19 11:59:06;;;;;;;5.35;2.10;;;12.70;78.70;;;;;;5023712;28;20041;-64
2022/03/19 12:01:47;;;;;;;5.22;1.90;;;12.70;84.00;;;;;;5030419;28;20115;-64
2022/03/19 12:04:13;;;;;;;3.72;1.38;;;12.60;72.40;;;;;;5023988;28;20045;-63
2022/03/19 12:06:52;;;;;;;2.65;1.60;;;12.70;61.20;;;;;;5019313;28;20178;-64
2022/03/19 12:09:19;;;;;;;4.40;1.50;;;12.60;56.60;;;;;;5020007;28;20045;-63
2022/03/19 12:12:06;;;;;;;5.63;1.75;;;12.70;66.60;;;;;;5025765;28;20038;-64
2022/03/19 12:14:33;;;;;;;3.88;1.58;;;12.70;57.20;;;;;;5022464;28;20045;-64
2022/03/19 12:17:16;;;;;;;3.92;1.90;;;12.80;69.70;;;;;;5030270;28;20432;-64
2022/03/19 12:19:51;;;;;;;6.68;2.53;;;12.80;65.80;;;;;;5030469;28;20052;-64
2022/03/19 12:22:30;;;;;;;6.25;2.20;;;12.80;60.50;;;;;;5024666;28;20052;-64
2022/03/19 12:25:20;;;;;;;4.95;1.80;;;12.70;62.60;;;;;;5028384;28;20038;-63
2022/03/19 12:27:57;;;;;;;5.43;1.88;;;12.80;59.30;;;;;;5027846;28;20518;-64
2022/03/19 12:30:25;;;;;;;7.60;2.10;;;13.00;68.00;;;;;;5019549;28;20038;-63
2022/03/19 12:32:54;;;;;;;3.65;2.30;;;13.10;76.10;;;;;;5027967;28;20040;-62
2022/03/19 12:35:22;;;;;;;5.93;2.25;;;13.10;74.30;;;;;;5030303;28;20507;-62
2022/03/19 12:37:49;;;;;;;3.42;1.60;;;13.10;76.30;;;;;;5030759;28;20037;-62
2022/03/19 12:40:20;;;;;;;5.10;1.85;;;13.00;60.10;;;;;;5022751;28;20419;-62
2022/03/19 12:42:59;;;;;;;5.20;1.80;;;12.90;54.80;;;;;;5029502;28;20045;-62
2022/03/19 12:45:39;;;;;;;5.78;1.70;;;12.90;53.10;;;;;;5020690;28;20180;-62
2022/03/19 12:48:12;;;;;;;3.83;1.70;;;12.80;52.40;;;;;;5022458;28;20037;-62
2022/03/19 12:50:38;;;;;;;2.83;1.55;;;12.90;52.40;;;;;;5030635;28;20045;-62
2022/03/19 12:53:05;;;;;;;4.32;2.17;;;13.00;54.50;;;;;;5030231;28;20106;-62
2022/03/19 12:55:31;;;;;;;4.32;1.83;;;13.00;55.40;;;;;;5020984;28;20034;-62
2022/03/19 12:57:58;;;;;;;6.90;2.05;;;13.10;57.90;;;;;;5031039;28;20064;-62
2022/03/19 13:00:24;;;;;;;4.80;2.10;;;13.00;52.20;;;;;;5030379;28;20037;-64
2022/03/19 13:02:51;;;;;;;4.35;1.70;;;13.10;54.80;;;;;;5017341;28;20052;-61
2022/03/19 13:05:17;;;;;;;5.95;2.15;;;13.00;53.40;;;;;;5021575;28;20040;-62
2022/03/19 13:08:05;;;;;;;6.47;2.00;;;13.10;56.20;;;;;;5017772;28;20038;-63